Time;durP1;ratioP1;P1;durP2;ratioP2;P2;SDS_P1;SDS_P2;PMS_P1;PMS_P2;Temp;Humidity;BMP_temperature;BMP_pressure;BME280_temperature;BME280_humidity;BME280_pressure;Samples;Min_cycle;Max_cycle;Signal;HPM_P1;HPM_P2
2022/01/26 00:07:04;;;;;;;39.42;18.95;;;3.50;99.90;;;;;;5135856;27;20052;-69
2022/01/26 00:09:30;;;;;;;38.40;18.20;;;3.50;99.90;;;;;;5136292;27;20023;-69
2022/01/26 00:11:56;;;;;;;37.60;16.88;;;3.40;99.90;;;;;;5134395;27;20358;-68
2022/01/26 00:14:22;;;;;;;42.55;18.20;;;3.30;99.90;;;;;;5134704;27;20060;-68
2022/01/26 00:16:47;;;;;;;33.95;18.15;;;3.40;99.90;;;;;;5135587;27;20038;-69
2022/01/26 00:19:21;;;;;;;40.08;17.83;;;3.30;99.90;;;;;;5135601;27;20510;-68
2022/01/26 00:21:51;;;;;;;36.22;17.95;;;3.30;99.90;;;;;;5134689;27;20081;-68
2022/01/26 00:29:23;;;;;;;39.15;16.85;;;3.40;99.90;;;;;;5137121;27;20492;-67
2022/01/26 00:40:22;;;;;;;35.45;17.05;;;3.30;99.90;;;;;;5136467;27;20026;-69
2022/01/26 00:42:50;;;;;;;37.15;17.88;;;3.30;99.90;;;;;;5135439;27;20408;-68
2022/01/26 00:45:23;;;;;;;44.80;18.92;;;3.30;99.90;;;;;;5134850;27;20170;-69
2022/01/26 00:47:49;;;;;;;35.42;16.20;;;3.30;99.90;;;;;;5134013;27;20031;-69
2022/01/26 00:50:15;;;;;;;42.03;18.05;;;3.30;99.90;;;;;;5133469;27;20038;-69
2022/01/26 00:52:44;;;;;;;42.97;19.80;;;3.20;99.90;;;;;;5134988;27;20487;-69
2022/01/26 00:55:13;;;;;;;41.63;17.70;;;3.20;99.90;;;;;;5134738;27;20015;-69
2022/01/26 00:57:39;;;;;;;40.72;17.52;;;3.00;99.90;;;;;;5134542;27;20027;-69
2022/01/26 01:00:09;;;;;;;34.85;15.45;;;3.10;99.90;;;;;;5135491;27;20113;-69
2022/01/26 01:02:35;;;;;;;32.13;16.17;;;3.20;99.90;;;;;;5135150;27;20028;-69
2022/01/26 01:05:06;;;;;;;35.42;16.83;;;3.30;99.90;;;;;;5134652;27;20480;-67
2022/01/26 01:07:36;;;;;;;30.08;15.43;;;3.20;99.90;;;;;;5135224;27;20134;-68
2022/01/26 01:10:03;;;;;;;34.30;16.10;;;2.90;99.90;;;;;;5133449;27;20038;-68
2022/01/26 01:12:29;;;;;;;31.20;14.68;;;3.00;99.90;;;;;;5136763;27;20412;-68
2022/01/26 01:14:55;;;;;;;26.80;14.70;;;3.20;99.90;;;;;;5136147;27;20035;-69
2022/01/26 01:17:25;;;;;;;32.55;16.27;;;3.20;99.90;;;;;;5134723;27;20039;-68
2022/01/26 01:20:14;;;;;;;34.28;16.60;;;3.30;99.90;;;;;;5135517;27;20019;-69
2022/01/26 01:23:43;;;;;;;30.83;13.65;;;3.30;99.90;;;;;;5136775;27;20031;-69
2022/01/26 01:28:26;;;;;;;24.50;12.82;;;3.30;99.90;;;;;;5135271;27;20050;-68
2022/01/26 01:30:59;;;;;;;28.23;14.27;;;3.30;99.90;;;;;;5135020;27;20472;-68
2022/01/26 01:33:32;;;;;;;28.42;14.50;;;3.40;99.90;;;;;;5134552;27;20031;-69
2022/01/26 01:35:59;;;;;;;27.67;12.57;;;3.40;99.90;;;;;;5135295;27;20039;-72
2022/01/26 01:38:28;;;;;;;25.73;13.48;;;3.40;99.90;;;;;;5135880;27;20027;-71
2022/01/26 01:40:54;;;;;;;26.88;13.15;;;3.50;99.90;;;;;;5135044;27;20479;-67
2022/01/26 01:43:21;;;;;;;29.90;14.02;;;3.30;99.90;;;;;;5134107;27;20093;-68
2022/01/26 01:45:50;;;;;;;30.17;13.98;;;3.30;99.90;;;;;;5135916;27;20027;-68
2022/01/26 01:48:20;;;;;;;28.38;14.45;;;3.30;99.90;;;;;;5135858;27;20031;-68
2022/01/26 01:50:48;;;;;;;35.40;17.10;;;3.20;99.90;;;;;;5135657;27;20023;-67
2022/01/26 01:53:17;;;;;;;41.15;18.05;;;3.20;99.90;;;;;;5135391;27;20039;-68
2022/01/26 01:55:48;;;;;;;36.42;16.80;;;3.10;99.90;;;;;;5134178;27;20118;-68
2022/01/26 01:58:15;;;;;;;36.50;18.13;;;3.10;99.90;;;;;;5134375;27;20068;-67
2022/01/26 02:00:41;;;;;;;34.85;17.05;;;3.20;99.90;;;;;;5134510;27;20023;-68
2022/01/26 02:03:07;;;;;;;29.00;15.23;;;3.20;99.90;;;;;;5133631;27;20429;-69
2022/01/26 02:05:33;;;;;;;42.00;16.27;;;3.20;99.90;;;;;;5134239;27;20465;-69
2022/01/26 02:07:59;;;;;;;38.15;16.85;;;3.20;99.90;;;;;;5134309;27;20027;-68
2022/01/26 02:10:25;;;;;;;38.15;16.88;;;3.00;99.90;;;;;;5133523;27;20030;-68
2022/01/26 02:12:56;;;;;;;31.90;15.55;;;3.00;99.90;;;;;;5134127;27;20030;-67
2022/01/26 02:15:28;;;;;;;30.95;14.95;;;3.20;99.90;;;;;;5133539;27;20443;-67
2022/01/26 02:18:20;;;;;;;33.35;16.80;;;3.20;99.90;;;;;;5132287;27;20027;-68
2022/01/26 02:56:07;;;;;;;34.92;14.95;;;2.80;99.90;;;;;;5133008;27;20034;-69
2022/01/26 02:59:35;;;;;;;33.88;15.25;;;3.00;99.90;;;;;;5134665;28;20031;-68
2022/01/26 03:04:27;;;;;;;30.27;14.30;;;3.10;99.90;;;;;;5134663;27;20082;-67
2022/01/26 03:06:51;;;;;;;30.35;14.18;;;2.90;99.90;;;;;;5137058;27;20042;-67
2022/01/26 03:09:22;;;;;;;32.78;14.85;;;2.90;99.90;;;;;;5135904;27;20027;-67
2022/01/26 03:11:49;;;;;;;28.77;14.02;;;2.80;99.90;;;;;;5137780;27;20042;-67
2022/01/26 03:15:01;;;;;;;37.95;15.63;;;2.90;99.90;;;;;;5135644;27;20472;-69
2022/01/26 03:17:23;;;;;;;33.70;15.57;;;2.90;99.90;;;;;;5131158;27;20063;-67
2022/01/26 03:19:53;;;;;;;29.70;13.30;;;2.90;99.90;;;;;;5138295;27;20096;-69
2022/01/26 03:35:17;;;;;;;25.20;12.43;;;2.40;99.90;;;;;;5136676;27;20023;-67
2022/01/26 03:37:52;;;;;;;33.00;15.25;;;2.30;99.90;;;;;;5135680;27;20035;-68
2022/01/26 03:40:18;;;;;;;29.58;12.40;;;2.30;99.90;;;;;;5135485;27;20031;-67
2022/01/26 03:42:44;;;;;;;24.38;11.88;;;2.30;99.90;;;;;;5135962;27;20138;-67
2022/01/26 03:45:10;;;;;;;24.67;11.57;;;2.30;99.90;;;;;;5136780;27;20122;-67
2022/01/26 03:47:36;;;;;;;26.50;14.00;;;2.40;99.90;;;;;;5136875;27;20095;-67
2022/01/26 03:50:03;;;;;;;24.90;12.20;;;2.30;99.90;;;;;;5136527;27;20106;-67
2022/01/26 03:52:28;;;;;;;29.00;13.27;;;2.50;99.90;;;;;;5137545;27;20086;-68
2022/01/26 03:54:54;;;;;;;27.42;13.70;;;2.30;99.90;;;;;;5135555;27;20122;-67
2022/01/26 03:57:19;;;;;;;27.52;12.45;;;2.20;99.90;;;;;;5136070;27;20111;-68
2022/01/26 03:59:45;;;;;;;21.45;10.95;;;2.40;99.90;;;;;;5136379;27;20098;-68
2022/01/26 04:02:11;;;;;;;27.33;11.85;;;2.20;99.90;;;;;;5135543;27;20076;-67
2022/01/26 04:04:44;;;;;;;24.35;11.55;;;2.20;99.90;;;;;;5136073;27;20375;-67
2022/01/26 04:07:10;;;;;;;22.77;11.93;;;2.20;99.90;;;;;;5134584;27;20023;-69
2022/01/26 04:09:36;;;;;;;30.75;11.88;;;2.20;99.90;;;;;;5138064;27;20023;-67
2022/01/26 04:12:01;;;;;;;25.00;12.60;;;2.10;99.90;;;;;;5137694;27;20031;-67
2022/01/26 04:14:31;;;;;;;29.73;12.45;;;2.10;99.90;;;;;;5134736;27;20027;-68
2022/01/26 04:16:56;;;;;;;25.80;13.48;;;2.00;99.90;;;;;;5135652;27;20023;-67
2022/01/26 04:19:23;;;;;;;30.23;13.38;;;2.10;99.90;;;;;;5135738;27;20088;-67
2022/01/26 04:24:34;;;;;;;28.90;14.15;;;2.20;99.90;;;;;;5135963;27;20038;-66
2022/01/26 04:27:17;;;;;;;24.42;13.27;;;2.40;99.90;;;;;;5135057;27;20077;-68
2022/01/26 04:29:42;;;;;;;26.00;13.50;;;2.40;99.90;;;;;;5136447;27;20100;-67
2022/01/26 04:32:09;;;;;;;27.17;14.02;;;2.30;99.90;;;;;;5136055;27;20027;-68
2022/01/26 04:34:36;;;;;;;25.00;12.50;;;2.30;99.90;;;;;;5137128;27;20083;-71
2022/01/26 04:39:40;;;;;;;26.40;12.88;;;2.20;99.90;;;;;;5118974;28;20028;-68
2022/01/26 04:42:13;;;;;;;25.13;11.93;;;2.20;99.90;;;;;;5116792;28;20080;-68
2022/01/26 04:44:45;;;;;;;22.35;11.57;;;2.10;99.90;;;;;;5114387;28;20028;-66
2022/01/26 04:47:11;;;;;;;34.20;13.45;;;2.20;99.90;;;;;;5115553;28;20035;-69
2022/01/26 04:49:36;;;;;;;31.83;13.63;;;2.00;99.90;;;;;;5115745;28;20019;-68
2022/01/26 04:52:03;;;;;;;28.45;12.13;;;2.10;99.90;;;;;;5115255;28;20038;-67
2022/01/26 04:54:29;;;;;;;29.08;12.45;;;2.00;99.90;;;;;;5116974;28;20421;-68
2022/01/26 04:56:55;;;;;;;22.95;11.93;;;2.00;99.90;;;;;;5117663;28;20066;-68
2022/01/26 04:59:21;;;;;;;25.13;13.30;;;2.00;99.90;;;;;;5114244;28;20422;-67
2022/01/26 05:01:46;;;;;;;24.55;13.15;;;2.10;99.90;;;;;;5115146;28;20024;-69
2022/01/26 05:04:12;;;;;;;22.83;11.43;;;2.20;99.90;;;;;;5114629;28;20027;-70
2022/01/26 05:06:38;;;;;;;25.50;12.90;;;2.20;99.90;;;;;;5113725;28;20065;-67
2022/01/26 05:09:04;;;;;;;26.80;13.43;;;2.10;99.90;;;;;;5114443;28;20023;-68
2022/01/26 05:11:36;;;;;;;29.88;12.75;;;2.20;99.90;;;;;;5115420;28;20019;-70
2022/01/26 05:14:03;;;;;;;26.08;12.55;;;2.40;99.90;;;;;;5115458;28;20079;-67
2022/01/26 05:16:29;;;;;;;23.58;12.20;;;2.50;99.90;;;;;;5117714;28;20027;-69
2022/01/26 05:18:56;;;;;;;21.67;10.50;;;2.50;99.90;;;;;;5115784;28;20037;-70
2022/01/26 05:21:27;;;;;;;28.02;12.73;;;2.60;99.90;;;;;;5116408;28;20058;-68
2022/01/26 05:23:53;;;;;;;26.60;11.33;;;2.50;99.90;;;;;;5114314;28;20040;-70
2022/01/26 05:26:19;;;;;;;21.27;11.60;;;2.40;99.90;;;;;;5113271;28;20288;-67
2022/01/26 05:28:45;;;;;;;22.67;12.40;;;2.40;99.90;;;;;;5112965;28;20027;-69
2022/01/26 05:31:11;;;;;;;25.73;11.05;;;2.40;99.90;;;;;;5114263;28;20031;-67
2022/01/26 05:33:37;;;;;;;23.48;12.52;;;2.40;99.90;;;;;;5114175;28;20036;-68
2022/01/26 05:36:03;;;;;;;21.15;11.32;;;2.20;99.90;;;;;;5115326;28;20465;-68
2022/01/26 05:38:29;;;;;;;26.67;12.50;;;2.30;99.90;;;;;;5114729;28;20476;-67
2022/01/26 05:40:56;;;;;;;24.80;12.55;;;2.10;99.90;;;;;;5117048;28;20030;-67
2022/01/26 05:43:22;;;;;;;26.40;12.88;;;2.00;99.90;;;;;;5096801;28;20040;-67
2022/01/26 05:45:52;;;;;;;34.00;13.90;;;2.10;99.90;;;;;;5115125;28;20031;-68
2022/01/26 05:48:18;;;;;;;27.02;12.77;;;1.80;99.90;;;;;;5114204;28;20047;-67
2022/01/26 05:50:51;;;;;;;26.20;13.13;;;2.00;99.90;;;;;;5114507;28;20134;-67
2022/01/26 05:53:20;;;;;;;26.88;12.27;;;2.00;99.90;;;;;;5113111;28;20024;-68
2022/01/26 05:55:55;;;;;;;25.08;12.23;;;2.10;99.90;;;;;;5113739;28;20024;-68
2022/01/26 05:58:21;;;;;;;26.60;12.30;;;1.90;99.90;;;;;;5114856;28;20098;-67
2022/01/26 06:00:47;;;;;;;24.70;12.50;;;1.90;99.90;;;;;;5115842;28;20497;-68
2022/01/26 06:03:13;;;;;;;29.38;13.93;;;2.00;99.90;;;;;;5115859;28;20120;-68
2022/01/26 06:05:42;;;;;;;27.85;13.48;;;2.00;99.90;;;;;;5114062;28;20035;-69
2022/01/26 06:08:08;;;;;;;27.15;12.68;;;2.20;99.90;;;;;;5115596;28;20058;-69
2022/01/26 06:10:34;;;;;;;24.98;12.82;;;2.20;99.90;;;;;;5116073;28;20096;-68
2022/01/26 06:13:00;;;;;;;27.77;13.90;;;2.20;99.90;;;;;;5114706;28;20077;-69
2022/01/26 06:15:26;;;;;;;30.33;12.95;;;2.30;99.90;;;;;;5115143;28;20046;-69
2022/01/26 06:17:52;;;;;;;23.90;12.18;;;2.40;99.90;;;;;;5115707;28;20425;-68
2022/01/26 06:20:17;;;;;;;23.17;12.18;;;2.50;99.90;;;;;;5115411;28;20048;-68
2022/01/26 06:22:43;;;;;;;27.27;12.10;;;2.40;99.90;;;;;;5116599;28;20067;-69
2022/01/26 06:25:09;;;;;;;26.25;12.68;;;2.40;99.90;;;;;;5114106;28;20058;-68
2022/01/26 06:27:37;;;;;;;22.63;12.55;;;2.20;99.90;;;;;;5114948;28;20028;-68
2022/01/26 06:30:05;;;;;;;21.05;11.35;;;2.30;99.90;;;;;;5114259;28;20016;-69
2022/01/26 06:32:30;;;;;;;22.52;11.65;;;2.40;99.90;;;;;;5114113;28;20465;-68
2022/01/26 06:34:56;;;;;;;23.02;11.23;;;2.30;99.90;;;;;;5113084;28;20034;-69
2022/01/26 06:37:22;;;;;;;19.92;10.50;;;2.50;99.90;;;;;;5114228;28;20034;-68
2022/01/26 06:39:48;;;;;;;24.25;11.50;;;2.50;99.90;;;;;;5116655;28;20034;-69
2022/01/26 06:42:18;;;;;;;17.90;9.48;;;2.60;99.90;;;;;;5119791;28;20104;-74
2022/01/26 06:49:53;;;;;;;22.08;10.93;;;2.70;99.90;;;;;;5116671;28;20034;-68
2022/01/26 06:52:22;;;;;;;18.42;11.23;;;2.80;99.90;;;;;;5118123;28;20118;-69
2022/01/26 06:54:47;;;;;;;22.00;12.40;;;2.70;99.90;;;;;;5117629;28;20112;-73
2022/01/26 06:57:13;;;;;;;19.42;10.20;;;2.70;99.90;;;;;;5116639;28;20461;-73
2022/01/26 06:59:38;;;;;;;20.95;11.10;;;2.80;99.90;;;;;;5117220;28;20031;-69
2022/01/26 07:02:04;;;;;;;18.73;10.00;;;2.70;99.90;;;;;;5116592;28;20477;-72
2022/01/26 07:04:30;;;;;;;21.25;12.05;;;2.80;99.90;;;;;;5118588;28;20054;-71
2022/01/26 07:06:57;;;;;;;20.45;11.27;;;2.80;99.90;;;;;;5118983;28;20023;-70
2022/01/26 07:09:22;;;;;;;20.08;10.65;;;2.80;99.90;;;;;;5117983;28;20028;-69
2022/01/26 07:11:48;;;;;;;17.65;10.10;;;2.90;99.90;;;;;;5116761;28;20023;-68
2022/01/26 07:20:07;;;;;;;17.55;10.60;;;2.90;99.90;;;;;;5121678;28;20039;-69
2022/01/26 07:22:34;;;;;;;17.75;10.35;;;3.00;99.90;;;;;;5118720;28;20028;-68
2022/01/26 07:24:59;;;;;;;18.92;10.95;;;3.00;99.90;;;;;;5117479;28;20499;-72
2022/01/26 07:27:25;;;;;;;15.32;9.93;;;2.90;99.90;;;;;;5117602;28;20102;-69
2022/01/26 07:29:51;;;;;;;21.58;10.25;;;2.90;99.90;;;;;;5117868;28;20035;-70
2022/01/26 07:32:16;;;;;;;16.58;10.05;;;2.90;99.90;;;;;;5117696;28;20027;-69
2022/01/26 07:34:42;;;;;;;20.10;10.40;;;2.80;99.90;;;;;;5115684;28;20030;-69
2022/01/26 07:37:09;;;;;;;19.48;10.18;;;2.90;99.90;;;;;;5116980;28;20024;-68
2022/01/26 07:39:49;;;;;;;26.60;11.82;;;2.90;99.90;;;;;;5117105;28;20102;-68
2022/01/26 07:42:15;;;;;;;19.95;11.30;;;2.90;99.90;;;;;;5117759;28;20032;-68
2022/01/26 07:44:41;;;;;;;20.85;11.50;;;2.60;99.90;;;;;;5117502;28;20546;-68
2022/01/26 07:47:07;;;;;;;21.42;10.60;;;2.60;99.90;;;;;;5118161;28;20115;-70
2022/01/26 07:49:33;;;;;;;19.30;11.23;;;2.60;99.90;;;;;;5115729;28;20381;-69
2022/01/26 07:51:59;;;;;;;20.70;10.90;;;2.60;99.90;;;;;;5114824;28;20036;-69
2022/01/26 07:54:25;;;;;;;31.70;12.25;;;2.40;99.90;;;;;;5116604;28;20027;-68
2022/01/26 07:56:50;;;;;;;24.77;11.43;;;2.30;99.90;;;;;;5118261;28;20073;-68
2022/01/26 07:59:16;;;;;;;21.02;11.55;;;2.20;99.90;;;;;;5116903;28;20024;-69
2022/01/26 08:01:42;;;;;;;26.30;12.63;;;2.10;99.90;;;;;;5114868;28;20310;-69
2022/01/26 08:04:08;;;;;;;22.17;12.63;;;2.20;99.90;;;;;;5116121;28;20118;-69
2022/01/26 08:06:34;;;;;;;21.02;11.57;;;2.30;99.90;;;;;;5117299;27;20030;-69
2022/01/26 08:09:00;;;;;;;24.20;11.57;;;2.30;99.90;;;;;;5115619;28;20035;-69
2022/01/26 08:11:26;;;;;;;25.17;12.98;;;2.40;99.90;;;;;;5114789;28;20020;-68
2022/01/26 08:13:52;;;;;;;19.40;10.65;;;2.20;99.90;;;;;;5115103;28;20434;-69
2022/01/26 08:16:18;;;;;;;23.90;12.30;;;2.10;99.90;;;;;;5114949;28;20503;-69
2022/01/26 08:18:45;;;;;;;24.42;12.32;;;2.10;99.90;;;;;;5116003;28;20034;-69
2022/01/26 08:21:11;;;;;;;24.50;11.95;;;2.30;99.90;;;;;;5117882;28;20047;-68
2022/01/26 08:23:37;;;;;;;29.05;13.23;;;2.40;99.90;;;;;;5116140;28;20492;-70
2022/01/26 08:26:04;;;;;;;22.42;11.82;;;2.50;99.90;;;;;;5116397;28;20100;-68
2022/01/26 08:28:41;;;;;;;18.33;10.73;;;2.60;99.90;;;;;;5116725;28;20053;-68
2022/01/26 08:31:07;;;;;;;22.48;11.95;;;2.70;99.90;;;;;;5118212;28;20023;-68
2022/01/26 08:33:33;;;;;;;23.95;11.80;;;2.70;99.90;;;;;;5117363;28;20030;-71
2022/01/26 08:35:59;;;;;;;19.25;10.80;;;2.70;99.90;;;;;;5120366;28;20106;-70
2022/01/26 08:38:26;;;;;;;22.02;10.55;;;2.70;99.90;;;;;;5120342;28;20034;-70
2022/01/26 08:40:52;;;;;;;23.88;11.20;;;2.70;99.90;;;;;;5118646;28;20027;-69
2022/01/26 08:43:18;;;;;;;17.75;9.93;;;2.60;99.90;;;;;;5116842;28;20061;-69
2022/01/26 08:45:44;;;;;;;18.23;10.35;;;2.60;99.90;;;;;;5114396;28;20027;-70
2022/01/26 08:48:11;;;;;;;24.73;11.05;;;2.70;99.90;;;;;;5116129;28;20040;-70
2022/01/26 08:50:36;;;;;;;28.13;11.68;;;2.80;99.90;;;;;;5115428;27;20027;-70
2022/01/26 08:53:03;;;;;;;21.90;10.95;;;2.80;99.90;;;;;;5125200;27;20035;-70
2022/01/26 08:55:29;;;;;;;19.65;8.60;;;2.80;99.90;;;;;;5118159;27;20065;-70
2022/01/26 08:57:55;;;;;;;17.45;7.88;;;2.90;99.90;;;;;;5118043;27;20412;-69
2022/01/26 09:00:21;;;;;;;19.25;9.93;;;3.00;99.90;;;;;;5118835;27;20076;-70
2022/01/26 09:02:47;;;;;;;27.40;10.35;;;3.10;99.90;;;;;;5121141;27;20139;-64
2022/01/26 09:05:13;;;;;;;18.30;9.13;;;5.70;99.90;;;;;;5121799;27;20020;-71
2022/01/26 09:07:42;;;;;;;14.82;8.23;;;4.90;99.90;;;;;;5128272;27;20376;-69
2022/01/26 09:10:09;;;;;;;12.57;6.80;;;4.20;99.90;;;;;;5132530;27;20031;-70
2022/01/26 09:12:37;;;;;;;10.23;5.53;;;3.80;99.90;;;;;;5120408;27;20059;-69
2022/01/26 09:15:06;;;;;;;10.10;5.30;;;3.70;99.90;;;;;;5128869;27;20072;-69
2022/01/26 09:17:34;;;;;;;7.22;4.45;;;3.60;99.90;;;;;;5125928;27;20519;-68
2022/01/26 09:20:00;;;;;;;7.93;4.20;;;4.00;99.90;;;;;;5129380;27;20087;-70
2022/01/26 09:22:27;;;;;;;7.47;4.45;;;3.70;99.90;;;;;;5127213;27;20457;-70
2022/01/26 09:24:52;;;;;;;7.30;4.10;;;3.80;99.90;;;;;;5133421;27;20102;-70
2022/01/26 09:27:18;;;;;;;7.90;5.25;;;3.60;99.90;;;;;;5117628;27;20058;-69
2022/01/26 09:29:46;;;;;;;8.13;4.40;;;3.60;99.90;;;;;;5130144;27;20032;-68
2022/01/26 09:32:13;;;;;;;6.07;4.13;;;3.50;99.90;;;;;;5115371;27;20035;-68
2022/01/26 09:34:40;;;;;;;6.70;4.03;;;3.50;99.90;;;;;;5117746;27;20113;-68
2022/01/26 09:37:08;;;;;;;7.72;5.20;;;3.40;99.90;;;;;;5122131;27;20488;-70
2022/01/26 09:39:34;;;;;;;6.30;4.38;;;3.30;99.90;;;;;;5123517;27;20023;-69
2022/01/26 09:42:01;;;;;;;11.93;5.32;;;3.30;99.90;;;;;;5126059;27;20046;-71
2022/01/26 09:44:30;;;;;;;7.18;4.65;;;3.20;99.90;;;;;;5119015;27;20028;-69
2022/01/26 09:46:55;;;;;;;8.63;4.70;;;3.30;99.90;;;;;;5129707;27;20042;-70
2022/01/26 09:49:21;;;;;;;7.95;5.07;;;3.40;99.90;;;;;;5118907;27;20473;-71
2022/01/26 09:51:50;;;;;;;10.57;5.28;;;3.40;99.90;;;;;;5123287;27;20433;-69
2022/01/26 09:54:17;;;;;;;7.30;4.75;;;3.50;99.90;;;;;;5117887;28;20028;-70
2022/01/26 09:56:46;;;;;;;9.05;4.95;;;3.50;99.90;;;;;;5132491;27;20024;-69
2022/01/26 09:59:14;;;;;;;11.65;4.65;;;3.60;99.90;;;;;;5136592;27;20031;-69
2022/01/26 10:01:48;;;;;;;16.85;7.28;;;3.50;99.90;;;;;;5134908;27;20376;-70
2022/01/26 10:04:31;;;;;;;18.50;10.02;;;5.70;99.90;;;;;;5120581;27;20063;-67
2022/01/26 10:07:02;;;;;;;15.57;9.40;;;8.40;99.90;;;;;;5115436;27;20533;-67
2022/01/26 10:09:57;;;;;;;9.75;6.85;;;8.70;99.90;;;;;;5117715;27;20030;-69
2022/01/26 10:17:45;;;;;;;15.48;7.63;;;4.50;99.90;;;;;;5114048;28;20050;-76
2022/01/26 10:20:17;;;;;;;10.98;7.40;;;4.10;99.90;;;;;;5116120;27;20023;-70
2022/01/26 10:22:43;;;;;;;;;;;4.10;99.90;;;;;;5126932;27;20027;-70
2022/01/26 10:25:29;;;;;;;13.98;8.82;;;4.10;99.90;;;;;;5133900;27;19994;-70
2022/01/26 10:27:54;;;;;;;17.35;8.57;;;4.00;99.90;;;;;;5119994;27;20028;-69
2022/01/26 10:30:21;;;;;;;16.67;8.68;;;4.00;99.90;;;;;;5126826;27;20099;-73
2022/01/26 10:32:47;;;;;;;22.77;9.23;;;3.90;99.90;;;;;;5136327;27;20047;-69
2022/01/26 10:35:14;;;;;;;17.95;10.27;;;3.90;99.90;;;;;;5130755;27;20020;-69
2022/01/26 10:38:00;;;;;;;17.70;9.80;;;3.90;99.90;;;;;;5124451;28;20414;-69
2022/01/26 10:40:28;;;;;;;17.60;9.55;;;3.90;99.90;;;;;;5119391;28;20059;-73
2022/01/26 10:43:09;;;;;;;17.23;10.20;;;3.90;99.90;;;;;;5119503;28;20491;-69
2022/01/26 10:45:53;;;;;;;21.15;9.75;;;3.90;99.90;;;;;;5127080;28;20106;-68
2022/01/26 10:48:29;;;;;;;20.95;10.98;;;4.00;99.90;;;;;;5115763;28;20040;-70
2022/01/26 10:53:45;;;;;;;27.15;10.98;;;3.80;99.90;;;;;;5120670;28;20456;-70
2022/01/26 10:56:11;;;;;;;21.15;11.32;;;3.90;99.90;;;;;;5115519;28;20024;-70
2022/01/26 10:58:40;;;;;;;23.70;12.65;;;3.80;99.90;;;;;;5125762;28;20030;-70
2022/01/26 11:01:06;;;;;;;21.17;12.07;;;3.80;99.90;;;;;;5134028;27;20048;-72
2022/01/26 11:03:33;;;;;;;21.67;11.10;;;3.80;99.90;;;;;;5121081;27;20382;-70
2022/01/26 11:06:01;;;;;;;21.55;11.65;;;3.80;99.90;;;;;;5119600;27;20031;-71
2022/01/26 11:08:29;;;;;;;23.23;12.02;;;3.90;99.90;;;;;;5114014;27;20055;-70
2022/01/26 11:10:55;;;;;;;19.70;10.77;;;3.80;99.90;;;;;;5117205;28;20114;-70
2022/01/26 11:13:27;;;;;;;24.00;11.13;;;3.60;99.90;;;;;;5127589;28;20184;-69
2022/01/26 11:15:54;;;;;;;18.55;10.35;;;3.70;99.90;;;;;;5123664;28;20027;-69
2022/01/26 11:18:22;;;;;;;20.20;11.98;;;3.80;99.90;;;;;;5121086;28;20035;-70
2022/01/26 11:20:53;;;;;;;19.77;11.57;;;3.90;99.90;;;;;;5117374;28;20384;-70
2022/01/26 11:23:21;;;;;;;23.38;12.57;;;4.00;99.90;;;;;;5119909;28;20046;-71
2022/01/26 11:25:49;;;;;;;22.92;11.77;;;3.70;99.90;;;;;;5120241;27;20128;-72
2022/01/26 11:28:20;;;;;;;24.48;12.32;;;3.70;99.90;;;;;;5133522;27;20035;-70
2022/01/26 11:30:47;;;;;;;18.33;10.30;;;3.70;99.90;;;;;;5116607;27;20023;-70
2022/01/26 11:33:20;;;;;;;23.20;13.45;;;3.80;99.90;;;;;;5136034;27;20057;-71
2022/01/26 11:35:48;;;;;;;20.90;11.10;;;3.90;99.90;;;;;;5133132;27;20099;-68
2022/01/26 11:39:14;;;;;;;22.02;12.38;;;4.00;99.90;;;;;;5135108;27;20023;-70
2022/01/26 11:46:56;;;;;;;19.58;11.10;;;3.90;99.90;;;;;;5137514;27;19978;-68
2022/01/26 11:49:32;;;;;;;20.05;10.32;;;3.80;99.90;;;;;;5137472;27;20058;-69
2022/01/26 11:51:58;;;;;;;24.25;11.15;;;3.90;99.90;;;;;;5137230;27;20027;-68
2022/01/26 11:54:40;;;;;;;17.48;10.13;;;3.80;99.90;;;;;;5137911;27;20372;-70
2022/01/26 11:57:12;;;;;;;18.38;10.90;;;3.80;99.90;;;;;;5138653;27;20023;-69
2022/01/26 11:59:45;;;;;;;16.48;9.63;;;3.70;99.90;;;;;;5141004;27;20560;-68
2022/01/26 12:02:33;;;;;;;15.13;9.77;;;3.70;99.90;;;;;;5141078;27;20147;-69
2022/01/26 12:05:01;;;;;;;17.00;9.77;;;3.50;99.90;;;;;;5137484;27;20023;-70
2022/01/26 12:07:28;;;;;;;17.25;10.77;;;3.50;99.90;;;;;;5138044;27;20019;-69
2022/01/26 12:09:56;;;;;;;19.63;10.52;;;3.60;99.90;;;;;;5137346;27;20046;-73
2022/01/26 12:12:24;;;;;;;17.05;10.35;;;3.70;99.90;;;;;;5136512;27;20027;-68
2022/01/26 12:15:16;;;;;;;22.00;11.13;;;3.60;99.90;;;;;;5138118;27;20050;-69
2022/01/26 12:18:02;;;;;;;17.63;10.35;;;3.70;99.90;;;;;;5136614;27;20035;-69
2022/01/26 12:42:36;;;;;;;29.52;10.90;;;3.80;99.90;;;;;;5132124;27;20050;-68
2022/01/26 12:45:04;;;;;;;17.38;10.27;;;3.80;99.90;;;;;;5114291;28;20028;-67
2022/01/26 12:47:31;;;;;;;19.33;11.07;;;3.80;99.90;;;;;;5120246;27;20027;-69
2022/01/26 12:49:58;;;;;;;19.52;10.65;;;3.80;99.90;;;;;;5115833;28;20165;-68
2022/01/26 12:52:24;;;;;;;20.90;10.32;;;3.70;99.90;;;;;;5114846;28;20032;-70
2022/01/26 12:54:51;;;;;;;17.00;9.45;;;3.80;99.90;;;;;;5115298;28;20448;-67
2022/01/26 12:57:17;;;;;;;21.70;11.43;;;3.90;99.90;;;;;;5119989;27;20019;-71
2022/01/26 12:59:44;;;;;;;17.73;10.52;;;3.80;99.90;;;;;;5132218;27;20130;-71
2022/01/26 13:02:10;;;;;;;19.75;10.75;;;3.80;99.90;;;;;;5126398;27;20492;-70
2022/01/26 13:04:36;;;;;;;19.63;12.02;;;3.90;99.90;;;;;;5118241;28;20030;-73
2022/01/26 13:07:04;;;;;;;22.60;11.70;;;3.90;99.90;;;;;;5131918;27;20460;-72
2022/01/26 13:09:41;;;;;;;17.85;10.00;;;3.90;99.90;;;;;;5128936;27;20059;-70
2022/01/26 13:12:09;;;;;;;21.40;10.70;;;3.90;99.90;;;;;;5116542;28;20027;-71
2022/01/26 13:20:11;;;;;;;20.58;11.02;;;3.80;99.90;;;;;;5118524;28;20036;-74
2022/01/26 13:27:58;;;;;;;23.05;13.13;;;3.80;99.90;;;;;;5126581;27;20027;-69
2022/01/26 13:36:07;;;;;;;18.15;10.75;;;3.90;99.90;;;;;;5116714;28;20044;-73
2022/01/26 13:38:45;;;;;;;20.15;11.07;;;3.90;99.90;;;;;;5124387;27;20464;-72
2022/01/26 13:54:42;;;;;;;19.45;11.05;;;4.00;99.90;;;;;;5138086;27;20031;-69
2022/01/26 13:57:25;;;;;;;22.95;11.63;;;4.00;99.90;;;;;;5132729;27;20030;-70
2022/01/26 13:59:54;;;;;;;20.90;10.13;;;4.00;99.90;;;;;;5125799;27;20339;-71
2022/01/26 14:02:19;;;;;;;27.17;11.65;;;4.00;99.90;;;;;;5134919;27;20035;-70
2022/01/26 14:04:45;;;;;;;23.70;10.73;;;4.10;99.90;;;;;;5134341;27;20031;-71
2022/01/26 14:07:11;;;;;;;44.20;13.82;;;4.10;99.90;;;;;;5135983;27;20461;-70
2022/01/26 14:09:37;;;;;;;27.42;11.85;;;4.10;99.90;;;;;;5136285;27;20110;-72
2022/01/26 14:12:10;;;;;;;23.25;12.25;;;4.10;99.90;;;;;;5136146;27;20027;-70
2022/01/26 14:14:41;;;;;;;24.27;11.95;;;3.90;99.90;;;;;;5136876;27;20023;-73
2022/01/26 14:17:14;;;;;;;26.23;11.83;;;3.90;99.90;;;;;;5134911;27;20035;-73
2022/01/26 14:22:36;;;;;;;24.77;11.70;;;3.80;99.90;;;;;;5124028;27;20089;-70
2022/01/26 14:25:16;;;;;;;32.33;13.48;;;3.70;99.90;;;;;;5128392;27;20122;-71
2022/01/26 14:27:50;;;;;;;29.25;13.25;;;3.80;99.90;;;;;;5127565;27;20508;-69
2022/01/26 14:30:43;;;;;;;28.05;13.35;;;4.00;99.90;;;;;;5103745;28;20059;-71
2022/01/26 14:52:43;;;;;;;28.40;13.63;;;3.70;99.90;;;;;;5111097;28;20038;-70
2022/01/26 15:20:03;;;;;;;31.67;14.20;;;4.00;99.90;;;;;;5119858;27;20050;-71
2022/01/26 15:22:59;;;;;;;32.50;14.45;;;4.10;99.90;;;;;;5115932;27;20400;-72
2022/01/26 15:35:53;;;;;;;30.55;12.30;;;4.20;99.90;;;;;;5121232;27;20545;-68
2022/01/26 15:49:26;;;;;;;24.70;11.65;;;4.00;99.90;;;;;;5125451;27;20067;-71
2022/01/26 15:51:57;;;;;;;27.13;12.07;;;3.90;99.90;;;;;;5111379;28;20119;-70
2022/01/26 16:08:08;;;;;;;26.25;12.40;;;4.00;99.90;;;;;;5122603;27;20395;-69
2022/01/26 16:21:20;;;;;;;24.83;11.35;;;4.10;99.90;;;;;;5126391;27;20103;-68
2022/01/26 16:27:12;;;;;;;25.80;10.82;;;4.10;99.90;;;;;;5126971;27;20061;-68
2022/01/26 16:35:28;;;;;;;23.55;11.48;;;4.00;99.90;;;;;;5123776;27;20051;-69
2022/01/26 16:38:51;;;;;;;27.42;13.05;;;4.00;99.90;;;;;;5122206;27;20026;-70
2022/01/26 17:24:22;;;;;;;26.10;11.52;;;4.00;99.90;;;;;;5122647;27;20085;-70
2022/01/26 18:13:51;;;;;;;25.10;13.07;;;4.10;99.90;;;;;;5123914;27;20047;-71
2022/01/26 18:16:38;;;;;;;27.70;14.93;;;4.10;99.90;;;;;;5117222;27;20461;-71
2022/01/26 18:32:52;;;;;;;25.88;13.70;;;3.90;99.90;;;;;;5117001;28;20054;-71
2022/01/26 18:51:24;;;;;;;29.92;14.77;;;4.00;99.90;;;;;;5124267;28;20027;-71
2022/01/26 18:53:50;;;;;;;31.52;15.25;;;3.90;99.90;;;;;;5124469;27;20031;-70
2022/01/26 18:56:15;;;;;;;30.50;15.48;;;4.00;99.90;;;;;;5114973;28;20027;-69
2022/01/26 18:58:41;;;;;;;28.38;16.02;;;4.00;99.90;;;;;;5119016;28;20035;-70
2022/01/26 19:01:07;;;;;;;28.45;15.43;;;4.00;99.90;;;;;;5117504;28;20028;-70
2022/01/26 19:03:32;;;;;;;28.63;15.23;;;4.00;99.90;;;;;;5122277;28;20457;-69
2022/01/26 19:06:01;;;;;;;31.02;16.10;;;4.00;99.90;;;;;;5120336;28;20024;-69